GOBD Airport Information

Runway Information
Airport Frequencies
Airport Navaids
Airport Weather Information & NOTAM
ADDS - METARS form results

(0912 UTC 07 July 2020)
Data provider http://aviationweather.gov/metar/data/
 
METAR text: GOBD 070900Z 28004KT 220V340 9999 SCT013 28/23 Q1012 NOSIG
Conditions at: GOBD (DAKAR/DIAGNE , SN) observed 0900 UTC 07 July 2020
Temperature: 28.0°C (82°F)
Dewpoint: 23.0°C (73°F) [RH = 74%]
Pressure (altimeter): 29.88 inches Hg (1012.0 mb)
Winds: from the W (280 degrees) at 5 MPH (4 knots; 2.1 m/s)
Visibility: 6 or more miles (10+ km)
Ceiling: at least 12,000 feet AGL
Clouds: scattered clouds at 1300 feet AGL
Weather: no significant weather observed at this time

METAR text: GOBD 070830Z 33003KT 290V030 9999 FEW013 28/24 Q1012 NOSIG
Conditions at: GOBD (DAKAR/DIAGNE , SN) observed 0830 UTC 07 July 2020
Temperature: 28.0°C (82°F)
Dewpoint: 24.0°C (75°F) [RH = 79%]
Pressure (altimeter): 29.88 inches Hg (1012.0 mb)
Winds: from the NNW (330 degrees) at 3 MPH (3 knots; 1.5 m/s)
Visibility: 6 or more miles (10+ km)
Ceiling: at least 12,000 feet AGL
Clouds: few clouds at 1300 feet AGL
Weather: no significant weather observed at this time

Forecast for: GOBD (DAKAR/DIAGNE , SN)
Text: TAF GOBD 070530Z 0706/0812 26008KT 9000 NSC
Forecast period: 0600 UTC 07 July 2020 to 1200 UTC 08 July 2020
Forecast type: FROM: standard forecast or significant change
Winds: from the W (260 degrees) at 9 MPH (8 knots; 4.1 m/s)
Visibility: 6 miles (9 km)
Ceiling: unknown
Clouds: missing
Weather: no significant weather forecast for this period